New York, NY

9:42 AM EST on December 11, 2016 (GMT -0500)
Chelsea, West 28th St. | | Change Station

Elev 110 ft 40.75 °N, 73.99 °W | Updated 9 seconds ago

Partly Cloudy
Partly Cloudy
30.9 °F
Feels Like 31 °F
N
0.0
Wind Variable Wind from SE
Gusts 0.0 mph

Today
High -- | Low -- °F
--% Chance of Precip.
Yesterday
High -- | Low -- °F
Precip. -- in
Pressure 30.56 in
Visibility 10.0 miles
Clouds Few 11000 ft
Windchill 31 °F
Dew Point 13 °F
Humidity 47%
Rainfall 0.00 in
Snow Depth Not available.
7:10 AM 4:28 PM
Waxing Gibbous, 92% visible
METAR KNYC 111351Z AUTO 26003KT 10SM FEW110 M01/M09 A3058 RMK AO2 SLP347 T10111089 $
Pressure 30.56 in
Visibility 10.0 miles
Clouds Few 11000 ft
Windchill 31 °F
Dew Point 13 °F
Humidity 47%
Rainfall 0.00 in
Snow Depth Not available.
7:10 AM 4:28 PM
Waxing Gibbous, 92% visible
METAR KNYC 111351Z AUTO 26003KT 10SM FEW110 M01/M09 A3058 RMK AO2 SLP347 T10111089 $

10-Day Weather Forecast

Almanac

Astronomy

Dec. 11, 2016 Rise Set
Actual Time
Civil Twilight
Nautical Twilight
Astronomical Twilight
Moon
Length of Visible Light
Length of Day
Tomorrow will be .
, % of the Moon is Illuminated

Today's Extremes

State Highs State Lows

Community

WunderPhotos

Upload Photos

1,956,719 photos uploaded!

WunderBlog® & News

Nearby

Air Quality

  Air Quality AQ Index Pollutant
Not available.

Snow Depth

Station Depth Elevation

Earthquake Activity

City Distance Mag. Time & Date
Minimum magnitude displayed is 2.5.

Coastal Water Temperatures

Place Temperature

Stations

Nearby Weather Stations

Station Location Temp. Windchill Dew Point Humidity Wind Precip. Elev Updated Type
                   

Watches & Warnings

There are currently no watches in effect.